Time;durP1;ratioP1;P1;durP2;ratioP2;P2;SDS_P1;SDS_P2;PMS_P1;PMS_P2;Temp;Humidity;BMP_temperature;BMP_pressure;BME280_temperature;BME280_humidity;BME280_pressure;Samples;Min_cycle;Max_cycle;Signal;HPM_P1;HPM_P2
2023/08/14 00:01:04;;;;;;;7.10;3.33;;;15.00;99.90;;;;;;5051130;28;20088;-68
2023/08/14 00:03:30;;;;;;;6.50;2.97;;;15.00;99.90;;;;;;5049283;28;20045;-68
2023/08/14 00:05:55;;;;;;;4.13;2.42;;;14.90;99.90;;;;;;5050960;28;20067;-67
2023/08/14 00:08:21;;;;;;;5.20;2.80;;;14.80;99.90;;;;;;5042329;28;20036;-67
2023/08/14 00:10:47;;;;;;;4.43;2.60;;;14.80;99.90;;;;;;5051026;28;20052;-67
2023/08/14 00:13:12;;;;;;;4.30;2.80;;;14.70;99.90;;;;;;5050929;28;20409;-68
2023/08/14 00:15:38;;;;;;;4.93;2.80;;;14.70;99.90;;;;;;5050797;28;20107;-67
2023/08/14 00:18:05;;;;;;;5.43;2.90;;;14.70;99.90;;;;;;5041738;28;20069;-68
2023/08/14 00:20:30;;;;;;;5.28;3.45;;;14.60;99.90;;;;;;5050939;28;20099;-67
2023/08/14 00:22:57;;;;;;;4.80;2.97;;;14.70;99.90;;;;;;5050906;28;20586;-67
2023/08/14 00:25:22;;;;;;;4.65;2.92;;;14.70;99.90;;;;;;5050244;28;20480;-66
2023/08/14 00:27:48;;;;;;;6.90;3.28;;;14.60;99.90;;;;;;5049704;28;20091;-67
2023/08/14 00:30:14;;;;;;;6.80;2.70;;;14.70;99.90;;;;;;5050062;28;20048;-68
2023/08/14 00:32:39;;;;;;;4.10;2.67;;;14.60;99.90;;;;;;5050548;28;20056;-67
2023/08/14 00:35:05;;;;;;;3.05;2.35;;;14.60;99.90;;;;;;5049932;28;20041;-67
2023/08/14 00:37:45;;;;;;;3.58;2.55;;;14.50;99.90;;;;;;5050543;28;20441;-68
2023/08/14 00:40:12;;;;;;;4.10;3.10;;;14.50;99.90;;;;;;5050231;28;20064;-67
2023/08/14 00:42:42;;;;;;;5.28;2.65;;;14.50;99.90;;;;;;5050341;28;20053;-68
2023/08/14 00:45:08;;;;;;;8.05;3.65;;;14.40;99.90;;;;;;5049938;28;20045;-67
2023/08/14 00:47:35;;;;;;;7.78;3.25;;;14.40;99.90;;;;;;5041656;28;20052;-67
2023/08/14 00:50:03;;;;;;;7.70;3.10;;;14.50;99.90;;;;;;5050279;28;20045;-68
2023/08/14 00:52:31;;;;;;;6.82;3.58;;;14.50;99.90;;;;;;5050197;28;20399;-68
2023/08/14 00:55:01;;;;;;;6.72;3.10;;;14.50;99.90;;;;;;5049747;28;20365;-68
2023/08/14 00:57:29;;;;;;;5.43;2.85;;;14.50;99.90;;;;;;5050212;28;20187;-68
2023/08/14 00:59:56;;;;;;;8.95;3.63;;;14.40;99.90;;;;;;5049970;28;20466;-68
2023/08/14 01:02:23;;;;;;;6.90;2.58;;;14.40;99.90;;;;;;5050136;28;20084;-68
2023/08/14 01:04:49;;;;;;;5.18;3.33;;;14.40;99.90;;;;;;5048504;28;20145;-67
2023/08/14 01:07:15;;;;;;;9.98;3.25;;;14.40;99.90;;;;;;5038767;28;20120;-68
2023/08/14 01:09:40;;;;;;;4.13;2.90;;;14.40;99.90;;;;;;5046380;28;20128;-67
2023/08/14 01:12:25;;;;;;;10.13;3.25;;;14.30;99.90;;;;;;5049898;28;20044;-67
2023/08/14 01:14:59;;;;;;;5.72;3.58;;;14.30;99.90;;;;;;5049945;28;20496;-67
2023/08/14 01:17:29;;;;;;;5.00;3.42;;;14.30;99.90;;;;;;5049959;28;20491;-68
2023/08/14 01:19:57;;;;;;;7.25;3.13;;;14.40;99.90;;;;;;5050075;28;20079;-67
2023/08/14 01:22:22;;;;;;;5.80;3.47;;;14.60;99.90;;;;;;5040974;28;20092;-67
2023/08/14 01:25:19;;;;;;;6.65;3.28;;;14.40;99.90;;;;;;5049929;28;20065;-68
2023/08/14 01:27:45;;;;;;;7.72;3.33;;;14.40;99.90;;;;;;5047875;28;20059;-67
2023/08/14 01:30:11;;;;;;;5.20;3.53;;;14.40;99.90;;;;;;5049897;28;20148;-68
2023/08/14 01:32:36;;;;;;;4.93;2.72;;;14.30;99.90;;;;;;5050110;28;20602;-68
2023/08/14 01:35:03;;;;;;;4.95;2.50;;;14.30;99.90;;;;;;5041192;28;20128;-67
2023/08/14 01:37:45;;;;;;;4.28;2.85;;;14.20;99.90;;;;;;5048876;28;20068;-68
2023/08/14 01:40:16;;;;;;;7.90;3.15;;;14.20;99.90;;;;;;5049092;28;20052;-67
2023/08/14 01:42:46;;;;;;;4.90;3.10;;;14.20;99.90;;;;;;5041424;28;20059;-68
2023/08/14 01:45:18;;;;;;;5.13;3.22;;;14.20;99.90;;;;;;5049739;28;20045;-68
2023/08/14 01:47:46;;;;;;;5.53;3.55;;;14.20;99.90;;;;;;5049589;28;20044;-67
2023/08/14 01:50:14;;;;;;;6.30;3.33;;;14.20;99.90;;;;;;5050337;28;20056;-67
2023/08/14 01:52:39;;;;;;;7.97;3.60;;;14.20;99.90;;;;;;5039830;28;20438;-67
2023/08/14 01:55:05;;;;;;;6.93;3.75;;;14.20;99.90;;;;;;5049792;28;20116;-68
2023/08/14 01:57:32;;;;;;;6.60;4.07;;;14.20;99.90;;;;;;5049728;28;20060;-67
2023/08/14 01:59:59;;;;;;;5.55;3.58;;;14.30;99.90;;;;;;5041422;28;20395;-67
2023/08/14 02:02:25;;;;;;;7.38;3.88;;;14.30;99.90;;;;;;5048669;28;20041;-67
2023/08/14 02:04:50;;;;;;;6.50;3.90;;;14.30;99.90;;;;;;5040975;28;20483;-67
2023/08/14 02:07:16;;;;;;;9.82;4.40;;;14.30;99.90;;;;;;5049335;28;20079;-67
2023/08/14 02:09:42;;;;;;;6.75;3.65;;;14.30;99.90;;;;;;5049058;28;20541;-67
2023/08/14 02:12:08;;;;;;;7.88;3.97;;;14.30;99.90;;;;;;5048707;28;20037;-68
2023/08/14 02:14:34;;;;;;;6.43;4.50;;;14.30;99.90;;;;;;5048059;28;20033;-66
2023/08/14 02:16:59;;;;;;;7.72;3.90;;;14.30;99.90;;;;;;5048908;28;20045;-67
2023/08/14 02:19:25;;;;;;;7.70;4.13;;;14.30;99.90;;;;;;5049382;28;20029;-67
2023/08/14 02:21:51;;;;;;;6.28;4.50;;;14.30;99.90;;;;;;5048978;28;20044;-68
2023/08/14 02:24:16;;;;;;;6.40;4.75;;;14.30;99.90;;;;;;5040377;28;20048;-68
2023/08/14 02:26:42;;;;;;;8.07;4.38;;;14.30;99.90;;;;;;5046238;28;20044;-68
2023/08/14 02:29:08;;;;;;;8.45;4.75;;;14.30;99.90;;;;;;5048638;28;20767;-67
2023/08/14 02:31:34;;;;;;;8.80;4.93;;;14.20;99.90;;;;;;5049353;28;20060;-67
2023/08/14 02:34:01;;;;;;;9.98;4.55;;;14.20;99.90;;;;;;5040382;28;20159;-66
2023/08/14 02:36:27;;;;;;;7.55;4.97;;;14.30;99.90;;;;;;5048884;28;20037;-68
2023/08/14 02:38:54;;;;;;;11.15;4.80;;;14.30;99.90;;;;;;5049076;28;20044;-67
2023/08/14 02:41:20;;;;;;;7.57;4.70;;;14.30;99.90;;;;;;5048608;28;20045;-67
2023/08/14 02:43:45;;;;;;;8.85;4.75;;;14.30;99.90;;;;;;5048869;28;20049;-68
2023/08/14 02:46:11;;;;;;;9.43;5.30;;;14.20;99.90;;;;;;5041993;28;20392;-67
2023/08/14 02:48:37;;;;;;;11.65;5.20;;;14.20;99.90;;;;;;5047115;28;20087;-68
2023/08/14 02:51:03;;;;;;;8.63;5.60;;;14.20;99.90;;;;;;5051067;28;20033;-67
2023/08/14 02:53:29;;;;;;;7.70;5.57;;;14.20;99.90;;;;;;5052249;28;20053;-67
2023/08/14 02:55:54;;;;;;;9.13;6.07;;;14.20;99.90;;;;;;5044366;28;20090;-67
2023/08/14 02:58:20;;;;;;;9.25;6.13;;;14.10;99.90;;;;;;5052447;28;20045;-67
2023/08/14 03:00:46;;;;;;;10.32;5.55;;;14.20;99.90;;;;;;5052674;28;20045;-68
2023/08/14 03:03:12;;;;;;;10.32;5.50;;;14.20;99.90;;;;;;5052509;28;20122;-67
2023/08/14 03:05:38;;;;;;;10.18;6.28;;;14.20;99.90;;;;;;5044400;28;20448;-68
2023/08/14 03:08:04;;;;;;;12.82;6.38;;;14.20;99.90;;;;;;5051784;28;20419;-67
2023/08/14 03:10:30;;;;;;;11.38;6.22;;;14.20;99.90;;;;;;5051906;28;20045;-67
2023/08/14 03:13:00;;;;;;;9.40;5.43;;;14.10;99.90;;;;;;5052141;28;20053;-67
2023/08/14 03:15:26;;;;;;;10.77;6.75;;;14.20;99.90;;;;;;5047183;28;20049;-67
2023/08/14 03:17:52;;;;;;;15.20;7.18;;;14.20;99.90;;;;;;5040818;28;20049;-67
2023/08/14 03:20:18;;;;;;;11.00;6.32;;;14.20;99.90;;;;;;5048347;28;20038;-68
2023/08/14 03:22:43;;;;;;;11.60;6.85;;;14.20;99.90;;;;;;5040304;28;20053;-68
2023/08/14 03:25:09;;;;;;;12.23;7.82;;;14.20;99.90;;;;;;5040393;28;20053;-67
2023/08/14 03:27:35;;;;;;;19.75;9.13;;;14.20;99.90;;;;;;5052294;28;20033;-67
2023/08/14 03:30:00;;;;;;;12.75;6.45;;;14.20;99.90;;;;;;5051480;28;20903;-68
2023/08/14 03:32:26;;;;;;;13.68;7.47;;;14.20;99.90;;;;;;5051916;28;20110;-67
2023/08/14 03:34:52;;;;;;;11.55;7.75;;;14.20;99.90;;;;;;5052123;28;20554;-67
2023/08/14 03:37:17;;;;;;;12.32;7.78;;;14.20;99.90;;;;;;5041763;28;20045;-67
2023/08/14 03:39:43;;;;;;;12.18;8.27;;;14.30;99.90;;;;;;5050833;28;20129;-67
2023/08/14 03:42:09;;;;;;;11.63;7.28;;;14.30;99.90;;;;;;5051765;28;20221;-68
2023/08/14 03:44:34;;;;;;;14.23;8.23;;;14.30;99.90;;;;;;5050012;28;20048;-67
2023/08/14 03:47:00;;;;;;;12.80;7.15;;;14.30;99.90;;;;;;5048248;28;20056;-67
2023/08/14 03:49:26;;;;;;;12.13;8.23;;;14.30;99.90;;;;;;5043173;28;20455;-67
2023/08/14 03:51:51;;;;;;;14.80;7.82;;;14.30;99.90;;;;;;5051673;28;20758;-67
2023/08/14 03:54:17;;;;;;;11.85;7.30;;;14.30;99.90;;;;;;5051949;28;20045;-67
2023/08/14 03:56:42;;;;;;;11.45;7.13;;;14.30;99.90;;;;;;5042977;28;20048;-67
2023/08/14 03:59:08;;;;;;;13.93;8.32;;;14.20;99.90;;;;;;5042173;28;20068;-67
2023/08/14 04:01:36;;;;;;;11.82;7.63;;;14.30;99.90;;;;;;5049913;28;20518;-67
2023/08/14 04:04:02;;;;;;;14.48;8.80;;;14.30;99.90;;;;;;5051393;28;20045;-68
2023/08/14 04:06:28;;;;;;;11.90;8.88;;;14.30;99.90;;;;;;5051221;28;20053;-67
2023/08/14 04:08:53;;;;;;;14.25;8.70;;;14.30;99.90;;;;;;5042457;28;20442;-67
2023/08/14 04:11:19;;;;;;;14.00;8.23;;;14.30;99.90;;;;;;5042244;28;20090;-67
2023/08/14 04:13:45;;;;;;;12.50;7.90;;;14.30;99.90;;;;;;5042807;28;20041;-68
2023/08/14 04:16:10;;;;;;;10.75;8.27;;;14.30;99.90;;;;;;5050711;28;20045;-67
2023/08/14 04:18:36;;;;;;;15.48;8.00;;;14.40;99.90;;;;;;5050386;28;20033;-68
2023/08/14 04:21:03;;;;;;;15.27;10.07;;;14.40;99.90;;;;;;5049993;28;20131;-68
2023/08/14 04:23:30;;;;;;;14.65;9.27;;;14.40;99.90;;;;;;5049949;28;20115;-67
2023/08/14 04:25:56;;;;;;;13.25;9.00;;;14.40;99.90;;;;;;5051078;28;20047;-67
2023/08/14 04:28:22;;;;;;;22.02;9.15;;;14.40;99.90;;;;;;5049542;28;20056;-68
2023/08/14 04:30:48;;;;;;;14.23;8.75;;;14.30;99.90;;;;;;5041876;28;20128;-67
2023/08/14 04:33:13;;;;;;;14.55;8.65;;;14.40;99.90;;;;;;5049095;28;20119;-67
2023/08/14 04:35:39;;;;;;;12.10;8.88;;;14.40;99.90;;;;;;5046894;28;20049;-67
2023/08/14 04:38:05;;;;;;;13.82;8.52;;;14.40;99.90;;;;;;5045021;28;20053;-67
2023/08/14 04:40:31;;;;;;;12.98;9.27;;;14.40;99.90;;;;;;5040488;28;20046;-67
2023/08/14 04:42:56;;;;;;;13.52;8.73;;;14.50;99.90;;;;;;5050265;28;20052;-68
2023/08/14 04:45:22;;;;;;;12.07;8.30;;;14.50;99.90;;;;;;5050434;28;20608;-68
2023/08/14 04:47:48;;;;;;;12.35;8.27;;;14.50;99.90;;;;;;5050427;28;20072;-68
2023/08/14 04:50:13;;;;;;;13.02;7.88;;;14.50;99.90;;;;;;5048859;28;20079;-68
2023/08/14 04:52:39;;;;;;;18.52;9.07;;;14.50;99.90;;;;;;5041939;28;20084;-67
2023/08/14 04:55:06;;;;;;;12.32;8.05;;;14.50;99.90;;;;;;5049956;28;20503;-68
2023/08/14 04:57:32;;;;;;;14.93;9.13;;;14.60;99.90;;;;;;5048813;28;20033;-67
2023/08/14 04:59:57;;;;;;;12.63;8.60;;;14.60;99.90;;;;;;5050714;28;20045;-68
2023/08/14 05:02:23;;;;;;;13.05;8.27;;;14.70;99.90;;;;;;5041309;28;20029;-68
2023/08/14 05:04:49;;;;;;;15.68;8.77;;;14.70;99.90;;;;;;5041759;28;20052;-69
2023/08/14 05:07:14;;;;;;;14.35;8.55;;;14.80;99.90;;;;;;5049884;28;20098;-68
2023/08/14 05:09:40;;;;;;;16.52;8.65;;;14.90;99.90;;;;;;5040463;28;20060;-67
2023/08/14 05:12:06;;;;;;;15.50;9.15;;;14.90;99.90;;;;;;5045664;28;20459;-68
2023/08/14 05:14:31;;;;;;;16.98;9.65;;;14.90;99.90;;;;;;5044402;28;20071;-69
2023/08/14 05:16:58;;;;;;;14.77;9.25;;;15.00;99.90;;;;;;5050080;28;20460;-68
2023/08/14 05:19:24;;;;;;;18.17;9.73;;;15.00;99.90;;;;;;5049950;28;20036;-67
2023/08/14 05:21:49;;;;;;;12.98;8.90;;;15.00;99.90;;;;;;5049652;28;20052;-68
2023/08/14 05:24:15;;;;;;;18.25;9.73;;;15.10;99.90;;;;;;5041588;28;20045;-68
2023/08/14 05:26:41;;;;;;;17.17;9.88;;;15.10;99.90;;;;;;5050043;28;20037;-67
2023/08/14 05:29:07;;;;;;;14.35;9.50;;;15.40;99.90;;;;;;5049435;28;20056;-68
2023/08/14 05:31:33;;;;;;;17.67;9.43;;;15.20;99.90;;;;;;5050125;28;20041;-68
2023/08/14 05:33:58;;;;;;;12.15;7.55;;;15.30;99.90;;;;;;5049705;28;20094;-67
2023/08/14 05:36:24;;;;;;;11.75;8.23;;;15.30;99.90;;;;;;5050031;28;20090;-68
2023/08/14 05:38:49;;;;;;;13.25;8.75;;;15.40;99.90;;;;;;5049782;28;20049;-67
2023/08/14 05:41:16;;;;;;;15.63;9.20;;;15.40;99.90;;;;;;5049979;28;20076;-68
2023/08/14 05:43:42;;;;;;;16.98;8.82;;;15.50;99.90;;;;;;5036654;28;20045;-68
2023/08/14 05:46:07;;;;;;;10.77;8.60;;;15.60;99.90;;;;;;5043463;28;20048;-70
2023/08/14 05:48:33;;;;;;;14.77;9.02;;;15.60;99.90;;;;;;5049291;28;20069;-67
2023/08/14 05:50:59;;;;;;;15.05;8.93;;;15.60;99.90;;;;;;5044861;28;20072;-67
2023/08/14 05:53:24;;;;;;;18.23;9.48;;;15.70;99.90;;;;;;5045765;28;20036;-67
2023/08/14 05:55:50;;;;;;;15.18;9.18;;;15.70;99.90;;;;;;5041410;28;20433;-67
2023/08/14 05:58:15;;;;;;;19.77;9.18;;;15.80;99.90;;;;;;5050106;28;20045;-68
2023/08/14 06:00:41;;;;;;;15.20;7.80;;;15.90;99.90;;;;;;5049512;28;20041;-68
2023/08/14 06:03:08;;;;;;;16.63;9.25;;;15.90;99.90;;;;;;5045486;28;20045;-68
2023/08/14 06:05:35;;;;;;;14.82;8.50;;;16.00;99.90;;;;;;5045563;28;20048;-68
2023/08/14 06:08:00;;;;;;;13.60;8.48;;;16.00;99.90;;;;;;5049586;28;20051;-68
2023/08/14 06:10:26;;;;;;;12.50;7.15;;;16.10;99.90;;;;;;5049742;28;20036;-68
2023/08/14 06:12:52;;;;;;;11.75;8.35;;;16.30;99.90;;;;;;5048021;28;20123;-68
2023/08/14 06:15:19;;;;;;;15.85;7.88;;;16.30;99.90;;;;;;5037916;28;20822;-67
2023/08/14 06:17:46;;;;;;;17.52;8.13;;;16.40;99.90;;;;;;5045690;28;20407;-68
2023/08/14 06:20:12;;;;;;;11.80;7.65;;;16.40;99.90;;;;;;5048924;28;20061;-67
2023/08/14 06:22:43;;;;;;;13.07;7.80;;;16.50;99.90;;;;;;5047965;28;20056;-69
2023/08/14 06:25:09;;;;;;;16.60;8.32;;;16.60;99.90;;;;;;5049768;28;20162;-65
2023/08/14 06:27:36;;;;;;;19.38;7.80;;;16.70;99.90;;;;;;5044923;28;20068;-67
2023/08/14 06:30:02;;;;;;;14.07;7.30;;;16.70;99.90;;;;;;5052853;28;20559;-67
2023/08/14 06:32:27;;;;;;;16.42;7.70;;;16.80;99.90;;;;;;5051999;28;20167;-66
2023/08/14 06:34:53;;;;;;;12.48;7.13;;;16.80;99.90;;;;;;5051739;28;20127;-68
2023/08/14 06:37:18;;;;;;;13.35;7.38;;;16.90;99.90;;;;;;5053202;28;20172;-67
2023/08/14 06:39:44;;;;;;;13.38;7.18;;;17.00;99.90;;;;;;5052952;28;20053;-67
2023/08/14 06:42:10;;;;;;;12.50;7.38;;;17.10;99.90;;;;;;5043705;28;20045;-67
2023/08/14 06:44:35;;;;;;;15.30;7.18;;;17.10;99.90;;;;;;5051543;28;20037;-67
2023/08/14 06:47:01;;;;;;;11.30;6.38;;;17.10;99.90;;;;;;5047617;28;20431;-68
2023/08/14 06:49:27;;;;;;;14.93;7.10;;;17.20;99.90;;;;;;5048096;28;20112;-69
2023/08/14 06:51:54;;;;;;;11.25;6.72;;;17.30;99.90;;;;;;5044151;28;20506;-67
2023/08/14 06:54:19;;;;;;;12.73;6.72;;;17.30;99.90;;;;;;5052804;28;20535;-67
2023/08/14 06:56:45;;;;;;;11.20;6.57;;;17.40;99.90;;;;;;5052922;28;20051;-68
2023/08/14 06:59:11;;;;;;;14.70;6.68;;;17.50;99.90;;;;;;5052810;28;20076;-67
2023/08/14 07:01:36;;;;;;;13.15;7.25;;;17.50;99.90;;;;;;5048177;28;20393;-66
2023/08/14 07:04:02;;;;;;;13.02;6.88;;;17.50;99.90;;;;;;5044387;28;20148;-68
2023/08/14 07:06:28;;;;;;;11.82;7.38;;;17.60;99.90;;;;;;5052539;28;20037;-69
2023/08/14 07:08:54;;;;;;;13.77;6.50;;;17.70;99.90;;;;;;5052042;28;20040;-68
2023/08/14 07:11:19;;;;;;;12.52;6.75;;;17.70;99.90;;;;;;5051733;28;20511;-66
2023/08/14 07:13:45;;;;;;;12.05;6.70;;;17.90;99.90;;;;;;5052273;28;20051;-66
2023/08/14 07:16:11;;;;;;;15.30;7.40;;;18.00;99.90;;;;;;5052223;28;20041;-67
2023/08/14 07:18:36;;;;;;;12.13;6.82;;;18.10;99.90;;;;;;5051932;28;20542;-66
2023/08/14 07:21:02;;;;;;;15.10;7.20;;;18.20;99.90;;;;;;5051799;28;20045;-67
2023/08/14 07:23:28;;;;;;;12.93;6.95;;;18.30;99.90;;;;;;5052130;28;20107;-69
2023/08/14 07:25:59;;;;;;;12.05;6.72;;;18.50;99.90;;;;;;5050763;28;20497;-68
2023/08/14 07:28:27;;;;;;;13.27;6.65;;;18.60;99.90;;;;;;5051727;28;20044;-67
2023/08/14 07:30:53;;;;;;;14.88;6.47;;;18.60;99.90;;;;;;5051274;28;20420;-67
2023/08/14 07:33:18;;;;;;;11.60;6.20;;;18.60;99.90;;;;;;5042444;28;20046;-67
2023/08/14 07:35:44;;;;;;;14.45;7.22;;;18.80;99.90;;;;;;5051691;28;20053;-68
2023/08/14 07:38:12;;;;;;;9.95;5.75;;;18.90;99.90;;;;;;5051249;28;20191;-68
2023/08/14 07:40:38;;;;;;;14.63;6.45;;;18.90;99.90;;;;;;5051828;28;20053;-68
2023/08/14 07:43:03;;;;;;;12.52;5.88;;;19.00;99.90;;;;;;5051747;28;20044;-68
2023/08/14 07:45:29;;;;;;;14.32;6.15;;;19.10;99.90;;;;;;5048375;28;20033;-68
2023/08/14 07:47:55;;;;;;;11.10;5.65;;;19.20;99.90;;;;;;5051503;28;20052;-68
2023/08/14 07:50:20;;;;;;;14.90;5.95;;;19.30;99.90;;;;;;5051659;28;20411;-68
2023/08/14 07:52:46;;;;;;;15.43;5.93;;;19.40;99.90;;;;;;5051092;28;20488;-67
2023/08/14 07:55:11;;;;;;;9.68;5.50;;;19.40;99.90;;;;;;5050919;28;20045;-67
2023/08/14 07:57:37;;;;;;;11.43;5.07;;;19.40;99.90;;;;;;5050194;28;20041;-66
2023/08/14 08:00:07;;;;;;;11.45;5.30;;;19.50;99.90;;;;;;5042731;28;20047;-66
2023/08/14 08:02:33;;;;;;;11.63;5.93;;;19.50;99.90;;;;;;5042930;28;20071;-66
2023/08/14 08:04:58;;;;;;;12.90;5.35;;;19.60;99.90;;;;;;5040113;28;20049;-69
2023/08/14 08:07:24;;;;;;;10.90;5.25;;;19.60;99.90;;;;;;5045579;28;20071;-66
2023/08/14 08:09:49;;;;;;;11.05;5.53;;;19.70;99.90;;;;;;5051332;28;20182;-66
2023/08/14 08:12:15;;;;;;;14.18;5.43;;;19.70;99.90;;;;;;5051138;28;20072;-68
2023/08/14 08:14:41;;;;;;;13.65;5.93;;;19.80;99.90;;;;;;5043710;28;20049;-66
2023/08/14 08:17:06;;;;;;;12.00;4.78;;;19.80;99.90;;;;;;5049640;28;20048;-66
2023/08/14 08:19:32;;;;;;;11.48;5.53;;;20.00;99.90;;;;;;5051081;28;20037;-66
2023/08/14 08:21:58;;;;;;;11.25;4.90;;;20.00;99.90;;;;;;5041625;28;20152;-66
2023/08/14 08:24:23;;;;;;;13.82;5.50;;;20.10;99.90;;;;;;5046156;28;20105;-66
2023/08/14 08:26:49;;;;;;;16.33;5.47;;;20.30;99.90;;;;;;5040548;28;20049;-66
2023/08/14 08:29:15;;;;;;;13.35;5.32;;;20.50;99.90;;;;;;5041463;28;20061;-67
2023/08/14 08:31:40;;;;;;;11.63;4.40;;;20.60;99.90;;;;;;5050431;28;20037;-68
2023/08/14 08:34:06;;;;;;;9.43;4.45;;;20.70;99.90;;;;;;5042467;28;20549;-67
2023/08/14 08:36:32;;;;;;;14.32;5.22;;;20.80;99.90;;;;;;5050399;28;20041;-67
2023/08/14 08:38:57;;;;;;;12.57;4.85;;;20.80;99.90;;;;;;5048948;28;20416;-67
2023/08/14 08:41:35;;;;;;;11.48;4.10;;;20.90;99.90;;;;;;5050264;28;20041;-67
2023/08/14 08:44:17;;;;;;;10.23;3.75;;;21.10;99.90;;;;;;5049861;28;20052;-67
2023/08/14 08:46:50;;;;;;;8.00;3.50;;;21.20;99.90;;;;;;5050501;28;20180;-67
2023/08/14 08:49:16;;;;;;;7.00;2.85;;;21.30;99.90;;;;;;5048518;28;20051;-68
2023/08/14 08:51:44;;;;;;;9.90;3.40;;;21.40;99.90;;;;;;5050171;28;20500;-68
2023/08/14 08:54:12;;;;;;;7.93;3.20;;;21.50;99.90;;;;;;5050137;28;20980;-69
2023/08/14 08:56:38;;;;;;;9.73;2.70;;;21.70;99.90;;;;;;5048708;28;20210;-67
2023/08/14 08:59:04;;;;;;;13.65;3.50;;;21.90;99.90;;;;;;5049758;28;20487;-67
2023/08/14 09:01:30;;;;;;;8.63;2.05;;;22.00;99.90;;;;;;5050625;28;20040;-68
2023/08/14 09:03:56;;;;;;;7.00;2.63;;;22.00;99.90;;;;;;5048698;28;20056;-67
2023/08/14 09:06:22;;;;;;;6.97;2.15;;;22.10;99.90;;;;;;5050113;28;20059;-67
2023/08/14 09:08:47;;;;;;;5.20;1.75;;;22.20;99.90;;;;;;5049658;28;20049;-66
2023/08/14 09:11:13;;;;;;;7.55;2.35;;;22.20;99.90;;;;;;5045938;28;20037;-68
2023/08/14 09:13:39;;;;;;;4.78;1.77;;;22.10;99.90;;;;;;5039764;28;20049;-67
2023/08/14 09:16:04;;;;;;;7.53;1.60;;;22.10;99.90;;;;;;5049934;28;20047;-68
2023/08/14 09:18:30;;;;;;;8.13;1.50;;;22.30;99.90;;;;;;5041710;28;20073;-68
2023/08/14 09:20:57;;;;;;;3.42;1.20;;;22.50;99.90;;;;;;5049839;28;20048;-67
2023/08/14 09:23:23;;;;;;;4.68;1.50;;;22.70;99.90;;;;;;5049963;28;20504;-69
2023/08/14 09:25:50;;;;;;;5.70;1.23;;;22.90;99.90;;;;;;5048169;28;20072;-67
2023/08/14 09:28:17;;;;;;;6.47;1.42;;;23.00;99.90;;;;;;5050005;28;20048;-67
2023/08/14 09:30:43;;;;;;;4.32;1.20;;;23.20;99.90;;;;;;5049350;28;20757;-68
2023/08/14 09:33:11;;;;;;;5.65;1.50;;;23.40;99.90;;;;;;5038174;28;20515;-68
2023/08/14 09:35:38;;;;;;;4.68;1.20;;;23.60;99.90;;;;;;5050077;28;20033;-69
2023/08/14 09:38:04;;;;;;;6.60;1.50;;;23.70;99.90;;;;;;5049820;28;20063;-68
2023/08/14 09:40:32;;;;;;;6.72;1.45;;;23.80;99.90;;;;;;5049649;28;20103;-69
2023/08/14 09:42:58;;;;;;;4.63;1.13;;;23.90;99.90;;;;;;5049418;28;20049;-68
2023/08/14 09:45:28;;;;;;;6.00;1.20;;;24.00;99.90;;;;;;5049475;28;20047;-68
2023/08/14 09:47:58;;;;;;;4.88;1.27;;;24.10;99.90;;;;;;5049979;28;20040;-68
2023/08/14 09:50:30;;;;;;;7.20;1.40;;;24.30;99.90;;;;;;5049725;28;20479;-67
2023/08/14 09:53:00;;;;;;;5.43;1.50;;;24.60;99.90;;;;;;5041927;28;20499;-69
2023/08/14 09:55:29;;;;;;;5.38;1.27;;;24.50;99.90;;;;;;5049863;28;20045;-67
2023/08/14 09:57:57;;;;;;;5.45;0.95;;;24.50;99.90;;;;;;5041278;28;20047;-68
2023/08/14 10:00:28;;;;;;;5.13;1.23;;;24.30;99.90;;;;;;5051381;28;20055;-68
2023/08/14 10:02:55;;;;;;;4.10;1.20;;;24.30;99.90;;;;;;5053388;28;20041;-69
2023/08/14 10:05:23;;;;;;;3.28;1.10;;;24.30;99.90;;;;;;5053719;28;20053;-68
2023/08/14 10:07:49;;;;;;;7.63;1.02;;;24.40;99.90;;;;;;5053310;28;20045;-68
2023/08/14 10:10:15;;;;;;;3.20;1.10;;;24.70;99.90;;;;;;5053380;28;20086;-68
2023/08/14 10:12:55;;;;;;;5.25;1.40;;;24.70;99.90;;;;;;5052948;28;20048;-70
2023/08/14 10:15:26;;;;;;;3.25;1.42;;;24.80;99.90;;;;;;5052809;28;20048;-68
2023/08/14 10:17:59;;;;;;;7.70;1.10;;;24.80;99.90;;;;;;5053295;28;20044;-67
2023/08/14 10:20:31;;;;;;;4.10;0.93;;;24.90;99.90;;;;;;5044603;28;20051;-67
2023/08/14 10:22:57;;;;;;;5.10;1.35;;;25.00;99.90;;;;;;5053132;28;20113;-70
2023/08/14 10:25:23;;;;;;;3.15;0.82;;;25.20;99.90;;;;;;5052561;28;20480;-69
2023/08/14 10:27:51;;;;;;;5.00;1.00;;;25.40;99.90;;;;;;5051418;28;20124;-69
2023/08/14 10:30:20;;;;;;;3.60;0.80;;;25.40;99.90;;;;;;5051715;28;20057;-68
2023/08/14 10:32:47;;;;;;;5.25;1.17;;;25.60;99.90;;;;;;5050898;28;20130;-69
2023/08/14 10:35:12;;;;;;;5.97;1.10;;;25.80;99.90;;;;;;5051472;28;20048;-69
2023/08/14 10:37:47;;;;;;;2.42;0.68;;;26.30;99.90;;;;;;5051426;28;20484;-69
2023/08/14 10:40:14;;;;;;;3.25;0.80;;;26.20;99.90;;;;;;5043289;28;20124;-69
2023/08/14 10:42:44;;;;;;;5.30;1.08;;;26.00;99.90;;;;;;5042987;28;20044;-69
2023/08/14 10:45:11;;;;;;;3.55;1.00;;;26.00;99.90;;;;;;5051636;28;20607;-69
2023/08/14 10:47:41;;;;;;;4.53;1.23;;;26.00;99.90;;;;;;5046643;28;20059;-69
2023/08/14 10:50:20;;;;;;;4.88;1.52;;;26.10;99.90;;;;;;5040566;28;20476;-70
2023/08/14 10:52:48;;;;;;;6.15;1.00;;;26.30;99.90;;;;;;5050104;28;20045;-69
2023/08/14 10:55:16;;;;;;;4.85;1.00;;;26.30;99.90;;;;;;5051738;28;20415;-69
2023/08/14 10:57:42;;;;;;;5.53;1.00;;;26.50;99.90;;;;;;5051211;28;20053;-70
2023/08/14 11:00:23;;;;;;;6.78;1.17;;;26.70;99.90;;;;;;5046705;28;20465;-70
2023/08/14 11:03:04;;;;;;;5.20;0.90;;;26.60;99.90;;;;;;5049779;28;20179;-71
2023/08/14 11:05:37;;;;;;;1.95;0.90;;;26.70;99.90;;;;;;5051697;28;20048;-70
2023/08/14 11:08:06;;;;;;;4.68;0.88;;;26.50;99.90;;;;;;5051162;28;20124;-70
2023/08/14 11:10:34;;;;;;;4.60;1.10;;;26.50;99.90;;;;;;5051215;28;20045;-70
2023/08/14 11:13:01;;;;;;;6.13;1.10;;;26.60;99.90;;;;;;5049844;28;20127;-70
2023/08/14 11:15:30;;;;;;;3.10;1.00;;;26.80;99.90;;;;;;5051651;28;20083;-70
2023/08/14 11:17:57;;;;;;;5.32;1.00;;;26.90;99.90;;;;;;5050200;28;20122;-70
2023/08/14 11:20:26;;;;;;;3.63;0.90;;;26.80;99.90;;;;;;5043865;28;20392;-69
2023/08/14 11:22:51;;;;;;;8.50;1.13;;;26.80;99.90;;;;;;5051272;28;20396;-69
2023/08/14 11:25:18;;;;;;;5.57;1.80;;;26.90;99.90;;;;;;5049718;28;20061;-67
2023/08/14 11:27:52;;;;;;;3.33;0.75;;;26.80;99.90;;;;;;5051011;28;20110;-68
2023/08/14 11:30:21;;;;;;;7.80;1.03;;;27.00;99.90;;;;;;5011711;28;1081028;-67
2023/08/14 11:32:47;;;;;;;4.45;1.05;;;27.10;99.90;;;;;;5052120;28;20060;-67
2023/08/14 11:35:13;;;;;;;3.72;1.33;;;27.20;99.90;;;;;;5051541;28;20045;-69
2023/08/14 11:37:39;;;;;;;5.50;1.10;;;27.00;99.90;;;;;;5044340;28;20535;-68
2023/08/14 11:40:07;;;;;;;4.80;1.33;;;27.10;99.90;;;;;;5051894;28;20120;-68
2023/08/14 11:42:34;;;;;;;3.55;1.38;;;27.10;99.90;;;;;;5051943;28;20045;-68
2023/08/14 11:45:03;;;;;;;8.93;1.00;;;27.30;99.90;;;;;;5051584;28;20439;-68
2023/08/14 11:47:34;;;;;;;3.15;0.90;;;27.40;99.90;;;;;;5052105;28;20091;-67
2023/08/14 11:50:00;;;;;;;4.05;1.23;;;27.50;99.90;;;;;;5051630;28;20123;-68
2023/08/14 11:52:26;;;;;;;5.72;1.27;;;27.60;99.90;;;;;;5052099;28;20060;-68
2023/08/14 11:54:56;;;;;;;3.47;1.00;;;27.60;99.90;;;;;;5043701;28;20162;-68
2023/08/14 11:57:29;;;;;;;3.63;1.10;;;27.70;99.90;;;;;;5052081;28;20033;-67
2023/08/14 11:59:56;;;;;;;7.53;1.13;;;27.90;99.90;;;;;;5051111;28;20049;-69
2023/08/14 12:02:24;;;;;;;3.45;1.20;;;28.00;99.90;;;;;;5051562;28;20060;-68
2023/08/14 12:05:00;;;;;;;6.65;1.33;;;27.80;99.90;;;;;;5051395;28;20128;-67
2023/08/14 12:07:27;;;;;;;3.85;1.10;;;27.80;99.90;;;;;;5051726;28;20033;-69
2023/08/14 12:09:54;;;;;;;5.63;1.30;;;28.00;99.90;;;;;;5049544;28;20052;-69
2023/08/14 12:12:20;;;;;;;2.72;0.80;;;28.10;99.90;;;;;;5042631;28;20118;-68
2023/08/14 12:14:49;;;;;;;4.45;1.50;;;28.40;99.90;;;;;;5042254;28;20488;-69
2023/08/14 12:17:18;;;;;;;5.80;1.20;;;28.40;99.90;;;;;;5042832;28;20880;-67
2023/08/14 12:19:52;;;;;;;2.97;1.10;;;28.30;99.90;;;;;;5049884;28;20434;-67
2023/08/14 12:22:19;;;;;;;;;;;28.20;99.90;;;;;;5050069;28;20191;-68
2023/08/14 12:24:45;;;;;;;5.25;1.20;;;28.30;99.90;;;;;;5050764;28;19966;-69
2023/08/14 12:27:23;;;;;;;3.25;1.27;;;28.10;99.90;;;;;;5050764;28;20084;-67
2023/08/14 12:29:50;;;;;;;4.88;0.95;;;28.00;99.90;;;;;;5050506;28;20385;-69
2023/08/14 12:32:16;;;;;;;8.98;1.17;;;27.80;99.90;;;;;;5048729;28;20052;-68
2023/08/14 12:34:42;;;;;;;5.70;1.50;;;27.90;99.90;;;;;;5043712;28;20491;-68
2023/08/14 12:37:12;;;;;;;6.70;1.08;;;27.90;99.90;;;;;;5050569;28;20052;-69
2023/08/14 12:39:38;;;;;;;6.45;1.58;;;27.90;99.90;;;;;;5042384;28;20464;-67
2023/08/14 12:42:04;;;;;;;4.70;1.10;;;28.10;99.90;;;;;;5049963;28;20040;-70